createdAt,value
2019-03-23T00:01:56.496Z,3.70
2019-03-23T00:04:25.471Z,3.70
2019-03-23T00:06:54.105Z,3.70
2019-03-23T00:09:22.752Z,3.70
2019-03-23T00:11:51.256Z,3.70
2019-03-23T00:14:19.897Z,3.70
2019-03-23T00:16:48.288Z,3.70
2019-03-23T00:19:16.800Z,3.80
2019-03-23T00:21:45.234Z,3.80
2019-03-23T00:24:13.676Z,3.70
2019-03-23T00:26:42.174Z,3.60
2019-03-23T00:29:10.716Z,3.50
2019-03-23T00:31:39.187Z,3.40
2019-03-23T00:34:07.600Z,3.30
2019-03-23T00:36:41.465Z,3.30
2019-03-23T00:39:06.765Z,3.20
2019-03-23T00:41:35.568Z,3.20
2019-03-23T00:44:03.987Z,3.30
2019-03-23T00:46:32.408Z,3.20
2019-03-23T00:49:00.848Z,3.20
2019-03-23T00:51:29.385Z,3.20
2019-03-23T00:53:57.812Z,3.10
2019-03-23T00:56:26.232Z,3.00
2019-03-23T00:58:54.753Z,2.90
2019-03-23T01:01:23.248Z,2.90
2019-03-23T01:03:51.686Z,2.80
2019-03-23T01:06:20.124Z,2.60
2019-03-23T01:08:48.540Z,2.50
2019-03-23T01:11:17.036Z,2.50
2019-03-23T01:13:45.475Z,2.50
2019-03-23T01:16:13.898Z,2.50
2019-03-23T01:18:42.329Z,2.50
2019-03-23T01:21:10.752Z,2.50
2019-03-23T01:23:39.200Z,2.60
2019-03-23T01:26:07.659Z,2.60
2019-03-23T01:28:36.221Z,2.60
2019-03-23T01:31:04.656Z,2.60
2019-03-23T01:33:33.084Z,2.60
2019-03-23T01:36:01.524Z,2.60
2019-03-23T01:38:29.954Z,2.50
2019-03-23T01:40:58.372Z,2.40
2019-03-23T01:43:26.896Z,2.30
2019-03-23T01:45:55.308Z,2.30
2019-03-23T01:48:23.760Z,2.20
2019-03-23T01:50:52.181Z,2.20
2019-03-23T01:53:20.625Z,2.30
2019-03-23T01:55:49.048Z,2.30
2019-03-23T01:58:17.652Z,2.20
2019-03-23T02:00:46.087Z,2.20
2019-03-23T02:03:14.532Z,2.30
2019-03-23T02:05:42.959Z,2.30
2019-03-23T02:08:11.398Z,2.20
2019-03-23T02:10:41.837Z,2.20
2019-03-23T02:13:09.976Z,2.20
2019-03-23T02:15:38.401Z,2.10
2019-03-23T02:18:06.836Z,2.00
2019-03-23T02:20:35.269Z,2.00
2019-03-23T02:23:03.786Z,1.90
2019-03-23T02:25:32.221Z,2.00
2019-03-23T02:28:00.744Z,2.00
2019-03-23T02:30:29.197Z,2.00
2019-03-23T02:32:57.628Z,2.00
2019-03-23T02:35:26.147Z,1.90
2019-03-23T02:37:54.577Z,1.90
2019-03-23T02:40:23.023Z,1.80
2019-03-23T02:42:51.517Z,1.80
2019-03-23T02:45:20.139Z,1.70
2019-03-23T02:47:48.573Z,1.70
2019-03-23T02:50:17.016Z,1.60
2019-03-23T02:52:45.484Z,1.60
2019-03-23T02:55:14.141Z,1.60
2019-03-23T02:57:42.576Z,1.50
2019-03-23T03:00:13.047Z,1.50
2019-03-23T03:02:41.517Z,1.50
2019-03-23T03:05:10.952Z,1.50
2019-03-23T03:07:42.478Z,1.50
2019-03-23T03:10:11.910Z,1.50
2019-03-23T03:12:40.830Z,1.40
2019-03-23T03:15:10.571Z,1.30
2019-03-23T03:17:39.135Z,1.30
2019-03-23T03:20:09.556Z,1.20
2019-03-23T03:22:38.057Z,1.20
2019-03-23T03:25:07.254Z,1.30
2019-03-23T03:27:35.753Z,1.20
2019-03-23T03:30:05.817Z,1.30
2019-03-23T03:32:34.346Z,1.30
2019-03-23T03:35:02.797Z,1.30
2019-03-23T03:37:31.289Z,1.30
2019-03-23T03:39:59.769Z,1.30
2019-03-23T03:42:28.197Z,1.30
2019-03-23T03:44:56.629Z,1.30
2019-03-23T03:47:25.080Z,1.20
2019-03-23T03:49:53.587Z,1.20
2019-03-23T03:52:22.028Z,1.20
2019-03-23T03:54:50.512Z,1.20
2019-03-23T03:57:19.024Z,1.20
2019-03-23T03:59:47.480Z,1.20
2019-03-23T04:02:16.007Z,1.10
2019-03-23T04:04:44.512Z,1.00
2019-03-23T04:07:12.944Z,0.90
2019-03-23T04:09:41.398Z,0.90
2019-03-23T04:12:09.832Z,0.90
2019-03-23T04:14:38.364Z,0.90
2019-03-23T04:17:06.795Z,1.00
2019-03-23T04:19:35.235Z,1.00
2019-03-23T04:22:04.096Z,1.00
2019-03-23T04:24:32.525Z,0.90
2019-03-23T04:27:02.618Z,0.90
2019-03-23T04:29:31.045Z,0.80
2019-03-23T04:31:59.474Z,0.80
2019-03-23T04:34:27.926Z,0.80
2019-03-23T04:36:56.484Z,0.90
2019-03-23T04:39:25.009Z,0.90
2019-03-23T04:41:53.440Z,0.80
2019-03-23T04:44:21.872Z,0.70
2019-03-23T04:46:50.321Z,0.60
2019-03-23T04:49:18.870Z,0.60
2019-03-23T04:51:47.409Z,0.60
2019-03-23T04:54:15.900Z,0.60
2019-03-23T04:56:44.338Z,0.70
2019-03-23T04:59:12.784Z,0.70
2019-03-23T05:01:41.216Z,0.70
2019-03-23T05:04:09.674Z,0.70
2019-03-23T05:06:38.106Z,0.80
2019-03-23T05:09:08.737Z,0.80
2019-03-23T05:11:37.277Z,0.80
2019-03-23T05:14:05.779Z,0.80
2019-03-23T05:16:34.209Z,0.90
2019-03-23T05:19:02.662Z,0.80
2019-03-23T05:21:31.092Z,0.70
2019-03-23T05:23:59.521Z,0.60
2019-03-23T05:26:27.977Z,0.50
2019-03-23T05:28:56.401Z,0.50
2019-03-23T05:31:24.833Z,0.50
2019-03-23T05:33:53.277Z,0.40
2019-03-23T05:36:21.710Z,0.40
2019-03-23T05:38:50.140Z,0.40
2019-03-23T05:41:18.595Z,0.40
2019-03-23T05:43:47.041Z,0.50
2019-03-23T05:46:15.478Z,0.60
2019-03-23T05:48:44.190Z,1.10
2019-03-23T05:51:12.752Z,1.60
2019-03-23T05:53:41.219Z,2.10
2019-03-23T05:56:09.744Z,2.50
2019-03-23T05:58:38.164Z,2.90
2019-03-23T06:01:06.623Z,3.00
2019-03-23T06:03:35.130Z,3.50
2019-03-23T06:06:03.748Z,4.00
2019-03-23T06:08:32.245Z,4.10
2019-03-23T06:11:00.688Z,4.20
2019-03-23T06:13:29.115Z,4.20
2019-03-23T06:15:57.534Z,4.10
2019-03-23T06:18:25.980Z,4.30
2019-03-23T06:20:54.400Z,4.60
2019-03-23T06:23:22.828Z,4.70
2019-03-23T06:25:51.287Z,5.10
2019-03-23T06:28:19.705Z,5.40
2019-03-23T06:30:48.128Z,5.80
2019-03-23T06:33:16.579Z,5.90
2019-03-23T06:35:44.996Z,6.40
2019-03-23T06:38:13.512Z,6.60
2019-03-23T06:40:41.942Z,6.50
2019-03-23T06:43:10.368Z,7.00
2019-03-23T06:45:38.810Z,7.40
2019-03-23T06:48:07.234Z,7.20
2019-03-23T06:50:35.656Z,7.30
2019-03-23T06:53:04.102Z,7.70
2019-03-23T06:55:32.584Z,7.90
2019-03-23T07:00:29.201Z,8.70
2019-03-23T07:02:57.620Z,8.80
2019-03-23T07:05:26.065Z,9.10
2019-03-23T07:07:54.488Z,9.30
2019-03-23T07:10:22.913Z,9.60
2019-03-23T07:12:51.352Z,9.70
2019-03-23T07:15:20.586Z,10.00
2019-03-23T07:17:49.187Z,10.00
2019-03-23T07:20:17.868Z,9.90
2019-03-23T07:22:46.296Z,10.00
2019-03-23T07:25:15.068Z,10.30
2019-03-23T07:27:43.514Z,10.20
2019-03-23T07:30:17.032Z,10.40
2019-03-23T07:32:46.318Z,10.90
2019-03-23T07:35:15.281Z,11.40
2019-03-23T07:37:43.692Z,11.80
2019-03-23T07:40:12.757Z,12.00
2019-03-23T07:42:41.297Z,12.40
2019-03-23T07:45:12.229Z,12.50
2019-03-23T07:47:40.652Z,12.80
2019-03-23T07:50:11.629Z,13.10
2019-03-23T07:52:40.218Z,13.40
2019-03-23T07:55:16.740Z,13.50
2019-03-23T07:57:45.408Z,13.90
2019-03-23T08:00:16.360Z,14.10
2019-03-23T08:02:45.025Z,14.50
2019-03-23T08:05:13.596Z,14.90
2019-03-23T08:07:42.387Z,15.30
2019-03-23T08:10:12.748Z,15.80
2019-03-23T08:12:41.176Z,16.50
2019-03-23T08:15:09.981Z,16.40
2019-03-23T08:17:38.412Z,17.10
2019-03-23T08:20:07.597Z,17.80
2019-03-23T08:22:36.025Z,18.10
2019-03-23T08:25:06.404Z,17.70
2019-03-23T08:27:34.837Z,18.30
2019-03-23T08:30:03.920Z,18.80
2019-03-23T08:32:32.348Z,19.30
2019-03-23T08:35:00.788Z,19.70
2019-03-23T08:37:29.249Z,19.30
2019-03-23T08:39:57.756Z,18.70
2019-03-23T08:42:26.181Z,19.20
2019-03-23T08:44:54.625Z,18.90
2019-03-23T08:47:23.046Z,18.90
2019-03-23T08:49:51.489Z,19.40
2019-03-23T08:52:19.919Z,19.70
2019-03-23T08:54:48.360Z,19.70
2019-03-23T08:57:16.786Z,19.30
2019-03-23T08:59:45.265Z,19.30
2019-03-23T09:02:13.696Z,19.40
2019-03-23T09:04:42.145Z,19.60
2019-03-23T09:07:10.571Z,19.90
2019-03-23T09:09:39.017Z,19.80
2019-03-23T09:12:07.441Z,19.90
2019-03-23T09:14:35.885Z,19.80
2019-03-23T09:17:04.480Z,19.80
2019-03-23T09:19:32.928Z,20.20
2019-03-23T09:22:01.356Z,20.00
2019-03-23T09:24:29.818Z,20.30
2019-03-23T09:26:58.237Z,20.10
2019-03-23T09:29:26.694Z,20.30
2019-03-23T09:31:55.124Z,20.70
2019-03-23T09:34:23.577Z,21.10
2019-03-23T09:36:52.012Z,21.00
2019-03-23T09:39:20.482Z,21.30
2019-03-23T09:41:48.970Z,21.10
2019-03-23T09:44:17.412Z,21.40
2019-03-23T09:46:45.848Z,21.80
2019-03-23T09:49:14.301Z,22.00
2019-03-23T09:51:42.730Z,22.40
2019-03-23T09:54:11.184Z,22.70
2019-03-23T09:56:39.622Z,23.00
2019-03-23T09:59:08.074Z,23.10
2019-03-23T10:01:36.508Z,22.70
2019-03-23T10:04:05.032Z,22.70
2019-03-23T10:06:33.467Z,22.80
2019-03-23T10:09:01.916Z,22.90
2019-03-23T10:11:30.372Z,23.10
2019-03-23T10:13:58.826Z,23.20
2019-03-23T10:16:27.262Z,23.20
2019-03-23T10:18:55.736Z,23.20
2019-03-23T10:21:24.248Z,23.50
2019-03-23T10:23:54.559Z,23.70
2019-03-23T10:26:22.858Z,23.70
2019-03-23T10:28:51.315Z,23.80
2019-03-23T10:31:19.807Z,24.00
2019-03-23T10:33:48.266Z,24.20
2019-03-23T10:36:16.704Z,24.50
2019-03-23T10:38:45.221Z,24.70
2019-03-23T10:41:13.656Z,24.10
2019-03-23T10:43:42.117Z,23.30
2019-03-23T10:46:13.492Z,23.60
2019-03-23T10:48:41.947Z,22.90
2019-03-23T10:51:10.372Z,22.80
2019-03-23T10:53:38.831Z,23.40
2019-03-23T10:56:07.262Z,24.00
2019-03-23T10:58:35.712Z,24.70
2019-03-23T11:01:04.316Z,25.50
2019-03-23T11:03:32.773Z,25.70
2019-03-23T11:06:01.205Z,25.30
2019-03-23T11:08:29.732Z,24.80
2019-03-23T11:10:58.152Z,24.20
2019-03-23T11:13:26.704Z,23.90
2019-03-23T11:15:55.136Z,25.00
2019-03-23T11:18:23.661Z,25.50
2019-03-23T11:20:52.096Z,25.90
2019-03-23T11:23:20.548Z,26.70
2019-03-23T11:25:48.980Z,25.90
2019-03-23T11:28:17.436Z,26.10
2019-03-23T11:30:45.868Z,26.40
2019-03-23T11:33:14.321Z,26.80
2019-03-23T11:35:42.756Z,27.50
2019-03-23T11:38:11.230Z,27.10
2019-03-23T11:40:39.668Z,26.70
2019-03-23T11:43:08.121Z,27.00
2019-03-23T11:45:36.558Z,27.10
2019-03-23T11:48:04.986Z,27.00
2019-03-23T11:50:33.438Z,26.40
2019-03-23T11:53:01.872Z,26.50
2019-03-23T11:55:30.310Z,26.70
2019-03-23T11:57:58.765Z,26.60
2019-03-23T12:00:27.198Z,26.80
2019-03-23T12:02:55.629Z,26.70
2019-03-23T12:05:24.085Z,26.30
2019-03-23T12:07:52.516Z,26.40
2019-03-23T12:10:21.081Z,26.60
2019-03-23T12:12:49.568Z,26.90
2019-03-23T12:15:18.072Z,26.80
2019-03-23T12:17:46.505Z,26.80
2019-03-23T12:20:15.029Z,26.70
2019-03-23T12:22:43.464Z,26.80
2019-03-23T12:25:12.141Z,26.70
2019-03-23T12:27:40.592Z,26.70
2019-03-23T12:30:14.824Z,26.50
2019-03-23T12:32:43.265Z,26.60
2019-03-23T12:35:12.454Z,27.00
2019-03-23T12:37:40.888Z,27.40
2019-03-23T12:40:10.523Z,27.60
2019-03-23T12:42:39.405Z,27.80
2019-03-23T12:45:08.742Z,27.90
2019-03-23T12:47:37.331Z,27.90
2019-03-23T12:50:07.976Z,27.70
2019-03-23T12:52:36.427Z,27.30
2019-03-23T12:55:07.368Z,27.60
2019-03-23T12:57:35.828Z,27.70
2019-03-23T13:00:07.173Z,27.80
2019-03-23T13:02:35.604Z,28.20
2019-03-23T13:05:06.092Z,27.80
2019-03-23T13:07:34.535Z,27.70
2019-03-23T13:10:03.524Z,26.70
2019-03-23T13:12:31.962Z,26.50
2019-03-23T13:15:00.392Z,26.90
2019-03-23T13:17:28.926Z,26.60
2019-03-23T13:19:57.422Z,26.60
2019-03-23T13:22:25.985Z,26.60
2019-03-23T13:24:54.432Z,26.70
2019-03-23T13:27:22.875Z,27.30
2019-03-23T13:29:51.324Z,27.10
2019-03-23T13:32:19.760Z,27.50
2019-03-23T13:34:48.191Z,27.10
2019-03-23T13:37:16.743Z,27.40
2019-03-23T13:39:45.176Z,27.10
2019-03-23T13:42:13.632Z,27.10
2019-03-23T13:44:42.065Z,26.60
2019-03-23T13:47:10.500Z,25.50
2019-03-23T13:49:38.963Z,25.20
2019-03-23T13:52:07.394Z,24.40
2019-03-23T13:54:35.848Z,23.80
2019-03-23T13:57:04.459Z,23.30
2019-03-23T13:59:32.896Z,23.00
2019-03-23T14:02:01.469Z,22.80
2019-03-23T14:04:29.964Z,22.60
2019-03-23T14:06:58.400Z,22.40
2019-03-23T14:09:26.866Z,22.20
2019-03-23T14:11:55.469Z,22.00
2019-03-23T14:14:24.205Z,21.70
2019-03-23T14:16:52.632Z,21.70
2019-03-23T14:19:21.100Z,21.70
2019-03-23T14:21:49.631Z,21.40
2019-03-23T14:24:18.056Z,21.10
2019-03-23T14:26:46.484Z,21.00
2019-03-23T14:29:14.947Z,21.10
2019-03-23T14:31:43.384Z,21.00
2019-03-23T14:34:11.833Z,20.80
2019-03-23T14:36:40.268Z,20.80
2019-03-23T14:39:08.708Z,20.70
2019-03-23T14:41:37.161Z,20.60
2019-03-23T14:44:05.596Z,20.60
2019-03-23T14:46:34.028Z,20.70
2019-03-23T14:49:02.505Z,20.70
2019-03-23T14:51:30.941Z,20.70
2019-03-23T14:53:59.388Z,20.70
2019-03-23T14:56:31.709Z,20.60
2019-03-23T14:58:57.975Z,20.50
2019-03-23T15:01:26.519Z,20.20
2019-03-23T15:03:54.944Z,20.10
2019-03-23T15:06:23.380Z,20.10
2019-03-23T15:08:51.840Z,20.00
2019-03-23T15:11:20.272Z,20.00
2019-03-23T15:13:48.704Z,20.00
2019-03-23T15:16:17.161Z,19.90
2019-03-23T15:18:45.594Z,19.80
2019-03-23T15:21:14.030Z,19.70
2019-03-23T15:23:42.480Z,19.70
2019-03-23T15:26:10.914Z,19.50
2019-03-23T15:28:39.344Z,19.50
2019-03-23T15:31:07.812Z,19.40
2019-03-23T15:33:37.293Z,19.40
2019-03-23T15:36:05.726Z,19.40
2019-03-23T15:38:34.172Z,19.30
2019-03-23T15:41:02.630Z,19.20
2019-03-23T15:43:31.067Z,19.10
2019-03-23T15:45:59.598Z,19.10
2019-03-23T15:48:28.774Z,18.90
2019-03-23T15:50:57.332Z,18.90
2019-03-23T15:53:25.784Z,18.90
2019-03-23T15:55:54.222Z,18.80
2019-03-23T15:58:22.701Z,18.80
2019-03-23T16:00:51.151Z,18.80
2019-03-23T16:03:19.664Z,18.70
2019-03-23T16:05:48.091Z,18.70
2019-03-23T16:08:16.545Z,18.60
2019-03-23T16:10:44.976Z,18.50
2019-03-23T16:13:13.404Z,18.50
2019-03-23T16:15:41.868Z,18.30
2019-03-23T16:18:10.314Z,18.30
2019-03-23T16:20:38.748Z,18.20
2019-03-23T16:23:07.886Z,18.20
2019-03-23T16:25:36.624Z,18.10
2019-03-23T16:28:05.137Z,18.00
2019-03-23T16:30:33.742Z,17.90
2019-03-23T16:33:02.236Z,17.90
2019-03-23T16:35:30.664Z,17.80
2019-03-23T16:37:59.115Z,17.70
2019-03-23T16:40:27.540Z,17.60
2019-03-23T16:42:55.992Z,17.50
2019-03-23T16:45:24.498Z,17.30
2019-03-23T16:47:52.924Z,17.30
2019-03-23T16:50:21.383Z,17.20
2019-03-23T16:52:49.898Z,17.00
2019-03-23T16:55:18.392Z,17.00
2019-03-23T16:57:46.844Z,16.80
2019-03-23T17:00:17.481Z,16.70
2019-03-23T17:02:46.032Z,16.60
2019-03-23T17:05:14.617Z,16.50
2019-03-23T17:07:43.068Z,16.40
2019-03-23T17:10:11.943Z,16.30
2019-03-23T17:12:40.400Z,16.20
2019-03-23T17:15:09.393Z,16.00
2019-03-23T17:17:37.833Z,15.90
2019-03-23T17:20:06.764Z,15.80
2019-03-23T17:22:35.552Z,15.60
2019-03-23T17:25:05.927Z,15.50
2019-03-23T17:27:34.381Z,15.40
2019-03-23T17:30:02.883Z,15.20
2019-03-23T17:32:31.420Z,15.10
2019-03-23T17:35:00.406Z,15.00
2019-03-23T17:37:28.928Z,14.80
2019-03-23T17:39:57.725Z,14.70
2019-03-23T17:42:26.204Z,14.60
2019-03-23T17:44:54.656Z,14.50
2019-03-23T17:47:23.214Z,14.40
2019-03-23T17:49:51.816Z,14.40
2019-03-23T17:52:20.244Z,14.30
2019-03-23T17:54:48.680Z,14.10
2019-03-23T17:57:17.132Z,13.90
2019-03-23T17:59:45.561Z,13.80
2019-03-23T18:02:14.282Z,13.70
2019-03-23T18:04:42.765Z,13.70
2019-03-23T18:07:11.417Z,13.60
2019-03-23T18:09:40.001Z,13.50
2019-03-23T18:12:08.480Z,13.30
2019-03-23T18:14:37.046Z,12.90
2019-03-23T18:17:05.599Z,12.70
2019-03-23T18:19:34.100Z,12.50
2019-03-23T18:22:02.655Z,12.40
2019-03-23T18:24:31.144Z,12.20
2019-03-23T18:26:59.626Z,12.00
2019-03-23T18:29:28.097Z,11.90
2019-03-23T18:31:56.603Z,11.60
2019-03-23T18:34:25.155Z,11.40
2019-03-23T18:36:55.249Z,11.30
2019-03-23T18:39:23.870Z,11.30
2019-03-23T18:41:52.706Z,11.20
2019-03-23T18:44:21.370Z,11.10
2019-03-23T18:46:49.854Z,11.00
2019-03-23T18:49:18.335Z,11.00
2019-03-23T18:51:46.848Z,10.90
2019-03-23T18:54:15.348Z,10.80
2019-03-23T18:56:43.890Z,10.70
2019-03-23T18:59:12.955Z,10.60
2019-03-23T19:01:41.652Z,10.50
2019-03-23T19:04:10.137Z,10.30
2019-03-23T19:06:38.679Z,10.20
2019-03-23T19:09:07.797Z,10.20
2019-03-23T19:11:36.407Z,10.10
2019-03-23T19:14:05.083Z,10.10
2019-03-23T19:16:33.770Z,10.00
2019-03-23T19:19:02.291Z,10.00
2019-03-23T19:21:31.134Z,10.00
2019-03-23T19:23:59.758Z,9.90
2019-03-23T19:26:28.287Z,9.80
2019-03-23T19:28:56.799Z,9.80
2019-03-23T19:31:25.316Z,9.70
2019-03-23T19:33:53.756Z,9.60
2019-03-23T19:36:32.604Z,9.50
2019-03-23T19:39:01.101Z,9.50
2019-03-23T19:41:29.525Z,9.30
2019-03-23T19:43:58.162Z,9.30
2019-03-23T19:46:27.337Z,9.10
2019-03-23T19:48:55.953Z,9.00
2019-03-23T19:51:24.581Z,8.90
2019-03-23T19:53:53.648Z,8.80
2019-03-23T19:56:22.330Z,8.80
2019-03-23T19:58:51.518Z,8.80
2019-03-23T20:01:20.254Z,8.80
2019-03-23T20:03:48.746Z,8.70
2019-03-23T20:06:17.898Z,8.70
2019-03-23T20:08:47.007Z,8.60
2019-03-23T20:11:17.195Z,8.50
2019-03-23T20:13:45.883Z,8.40
2019-03-23T20:16:14.664Z,8.40
2019-03-23T20:18:43.120Z,8.20
2019-03-23T20:21:11.780Z,8.10
2019-03-23T20:23:40.363Z,7.90
2019-03-23T20:26:08.862Z,8.00
2019-03-23T20:28:37.426Z,7.90
2019-03-23T20:31:06.522Z,7.80
2019-03-23T20:33:35.240Z,7.80
2019-03-23T20:36:03.752Z,7.80
2019-03-23T20:38:32.237Z,7.80
2019-03-23T20:41:00.851Z,7.80
2019-03-23T20:43:29.486Z,7.80
2019-03-23T20:45:58.157Z,7.60
2019-03-23T20:48:26.734Z,7.60
2019-03-23T20:50:55.850Z,7.50
2019-03-23T20:53:24.620Z,7.50
2019-03-23T20:55:53.047Z,7.50
2019-03-23T20:58:21.624Z,7.40
2019-03-23T21:00:50.068Z,7.30
2019-03-23T21:03:18.500Z,7.20
2019-03-23T21:05:46.949Z,7.20
2019-03-23T21:08:15.461Z,7.20
2019-03-23T21:10:43.960Z,7.00
2019-03-23T21:13:12.488Z,6.80
2019-03-23T21:15:40.944Z,6.70
2019-03-23T21:18:09.465Z,6.70
2019-03-23T21:20:38.024Z,6.70
2019-03-23T21:23:06.476Z,6.70
2019-03-23T21:25:34.977Z,6.40
2019-03-23T21:28:03.472Z,6.30
2019-03-23T21:30:32.684Z,6.30
2019-03-23T21:33:01.112Z,6.10
2019-03-23T21:35:29.579Z,6.10
2019-03-23T21:37:58.113Z,6.10
2019-03-23T21:40:26.537Z,6.10
2019-03-23T21:42:54.976Z,6.20
2019-03-23T21:45:23.473Z,6.20
2019-03-23T21:47:51.904Z,6.30
2019-03-23T21:50:20.353Z,6.30
2019-03-23T21:52:48.801Z,6.30
2019-03-23T21:55:17.228Z,6.30
2019-03-23T21:57:45.673Z,6.30
2019-03-23T22:00:17.341Z,6.20
2019-03-23T22:02:45.828Z,6.30
2019-03-23T22:05:14.276Z,6.30
2019-03-23T22:07:42.695Z,6.20
2019-03-23T22:10:11.368Z,6.20
2019-03-23T22:12:39.817Z,6.10
2019-03-23T22:15:09.910Z,6.10
2019-03-23T22:17:38.330Z,6.00
2019-03-23T22:20:08.327Z,5.90
2019-03-23T22:22:36.744Z,5.80
2019-03-23T22:25:07.033Z,5.70
2019-03-23T22:27:37.778Z,5.70
2019-03-23T22:30:11.113Z,5.70
2019-03-23T22:32:39.541Z,5.70
2019-03-23T22:35:08.424Z,5.70
2019-03-23T22:37:36.918Z,5.60
2019-03-23T22:40:07.480Z,5.60
2019-03-23T22:42:35.928Z,5.60
2019-03-23T22:45:08.661Z,5.50
2019-03-23T22:47:37.153Z,5.50
2019-03-23T22:50:09.113Z,5.50
2019-03-23T22:52:37.709Z,5.40
2019-03-23T22:55:07.468Z,5.40
2019-03-23T22:57:35.987Z,5.40
2019-03-23T23:00:18.126Z,5.30
2019-03-23T23:02:46.713Z,5.40
2019-03-23T23:05:15.480Z,5.30
2019-03-23T23:07:44.585Z,5.30
2019-03-23T23:10:13.100Z,5.30
2019-03-23T23:12:41.527Z,5.30
2019-03-23T23:15:10.993Z,5.30
2019-03-23T23:17:39.438Z,5.30
2019-03-23T23:20:08.510Z,5.30
2019-03-23T23:22:36.940Z,5.20
2019-03-23T23:25:07.011Z,5.20
2019-03-23T23:27:35.811Z,5.20
2019-03-23T23:30:09.005Z,5.20
2019-03-23T23:32:37.453Z,5.20
2019-03-23T23:35:08.492Z,5.20
2019-03-23T23:37:36.988Z,5.20
2019-03-23T23:40:08.984Z,5.10
2019-03-23T23:42:37.675Z,5.00
2019-03-23T23:45:15.237Z,5.00
2019-03-23T23:47:38.784Z,5.00
2019-03-23T23:50:08.056Z,4.90
2019-03-23T23:52:36.489Z,4.90
2019-03-23T23:55:06.371Z,4.90
2019-03-23T23:57:34.866Z,4.80
